createdAt,value
2018-03-22T00:00:55.725Z,99.99
2018-03-22T00:01:55.694Z,99.99
2018-03-22T00:02:55.709Z,99.99
2018-03-22T00:03:55.935Z,99.99
2018-03-22T00:04:55.884Z,99.99
2018-03-22T00:05:55.606Z,99.99
2018-03-22T00:06:55.850Z,99.99
2018-03-22T00:07:55.554Z,99.99
2018-03-22T00:08:55.811Z,99.99
2018-03-22T00:09:55.780Z,99.99
2018-03-22T00:10:55.761Z,99.99
2018-03-22T00:11:55.470Z,99.99
2018-03-22T00:12:55.716Z,99.99
2018-03-22T00:13:55.442Z,99.99
2018-03-22T00:14:55.668Z,99.99
2018-03-22T00:15:55.380Z,99.99
2018-03-22T00:16:55.629Z,99.99
2018-03-22T00:17:55.362Z,99.99
2018-03-22T00:18:55.590Z,99.99
2018-03-22T00:19:55.299Z,99.99
2018-03-22T00:20:55.280Z,99.99
2018-03-22T00:21:55.525Z,99.99
2018-03-22T00:22:55.250Z,99.99
2018-03-22T00:23:55.211Z,99.99
2018-03-22T00:24:55.506Z,99.99
2018-03-22T00:25:55.170Z,99.99
2018-03-22T00:26:55.413Z,99.99
2018-03-22T00:27:55.399Z,99.99
2018-03-22T00:28:55.393Z,99.99
2018-03-22T00:29:55.301Z,99.99
2018-03-22T00:30:55.188Z,99.99
2018-03-22T00:31:55.304Z,99.99
2018-03-22T00:32:55.024Z,99.99
2018-03-22T00:33:55.026Z,99.99
2018-03-22T00:34:55.244Z,99.99
2018-03-22T00:35:55.002Z,99.99
2018-03-22T00:36:54.934Z,99.99
2018-03-22T00:37:55.173Z,99.99
2018-03-22T00:38:55.187Z,99.99
2018-03-22T00:39:55.137Z,99.99
2018-03-22T00:40:54.841Z,99.99
2018-03-22T00:41:55.180Z,99.99
2018-03-22T00:42:55.072Z,99.99
2018-03-22T00:43:55.041Z,99.99
2018-03-22T00:44:54.757Z,99.99
2018-03-22T00:45:55.007Z,99.99
2018-03-22T00:46:54.718Z,99.99
2018-03-22T00:47:54.980Z,99.99
2018-03-22T00:48:54.667Z,99.99
2018-03-22T00:49:54.648Z,99.99
2018-03-22T00:50:54.947Z,99.99
2018-03-22T00:51:54.869Z,99.99
2018-03-22T00:52:54.854Z,99.99
2018-03-22T00:53:54.826Z,99.99
2018-03-22T00:54:54.806Z,99.99
2018-03-22T00:55:54.793Z,99.99
2018-03-22T00:56:54.769Z,99.99
2018-03-22T00:57:54.738Z,99.99
2018-03-22T00:58:54.729Z,99.99
2018-03-22T00:59:54.433Z,99.99
2018-03-22T01:00:54.680Z,99.99
2018-03-22T01:01:54.660Z,99.99
2018-03-22T01:02:54.374Z,99.99
2018-03-22T01:03:54.349Z,99.99
2018-03-22T01:04:54.336Z,99.99
2018-03-22T01:05:54.568Z,99.99
2018-03-22T01:06:54.559Z,99.99
2018-03-22T01:07:54.569Z,99.99
2018-03-22T01:08:54.544Z,99.99
2018-03-22T01:09:54.494Z,99.99
2018-03-22T01:10:54.195Z,99.99
2018-03-22T01:11:54.177Z,99.99
2018-03-22T01:12:54.253Z,99.99
2018-03-22T01:13:54.145Z,99.99
2018-03-22T01:14:54.374Z,99.99
2018-03-22T01:15:54.086Z,99.99
2018-03-22T01:16:54.329Z,99.99
2018-03-22T01:17:54.317Z,99.99
2018-03-22T01:18:54.288Z,99.99
2018-03-22T01:19:54.333Z,99.99
2018-03-22T01:20:54.285Z,99.99
2018-03-22T01:21:53.973Z,99.99
2018-03-22T01:22:54.199Z,99.99
2018-03-22T01:23:54.184Z,99.99
2018-03-22T01:24:53.908Z,99.99
2018-03-22T01:25:53.877Z,99.99
2018-03-22T01:26:53.850Z,99.99
2018-03-22T01:27:53.841Z,99.99
2018-03-22T01:28:53.807Z,99.99
2018-03-22T01:29:54.054Z,99.99
2018-03-22T01:30:54.040Z,99.99
2018-03-22T01:31:54.071Z,99.99
2018-03-22T01:32:54.011Z,99.99
2018-03-22T01:33:53.701Z,99.99
2018-03-22T01:34:53.681Z,99.99
2018-03-22T01:35:53.664Z,99.99
2018-03-22T01:36:53.908Z,99.99
2018-03-22T01:37:53.695Z,99.99
2018-03-22T01:38:53.590Z,99.99
2018-03-22T01:39:53.840Z,99.99
2018-03-22T01:40:53.543Z,99.99
2018-03-22T01:41:53.530Z,99.99
2018-03-22T01:42:53.512Z,99.99
2018-03-22T01:43:53.770Z,99.99
2018-03-22T01:44:53.773Z,99.99
2018-03-22T01:45:53.436Z,99.99
2018-03-22T01:46:53.690Z,99.99
2018-03-22T01:47:53.657Z,99.99
2018-03-22T01:48:53.658Z,99.99
2018-03-22T01:49:53.696Z,99.99
2018-03-22T01:50:53.332Z,99.99
2018-03-22T01:51:53.604Z,99.99
2018-03-22T01:52:53.569Z,99.99
2018-03-22T01:53:53.277Z,99.99
2018-03-22T01:54:53.508Z,99.99
2018-03-22T01:55:53.691Z,99.99
2018-03-22T01:56:53.822Z,99.99
2018-03-22T01:57:53.174Z,99.99
2018-03-22T01:58:53.248Z,99.99
2018-03-22T01:59:53.137Z,99.99
2018-03-22T02:00:53.558Z,99.99
2018-03-22T02:01:53.120Z,99.99
2018-03-22T02:02:53.341Z,99.99
2018-03-22T02:03:53.104Z,99.99
2018-03-22T02:04:53.121Z,99.99
2018-03-22T02:05:53.004Z,99.99
2018-03-22T02:06:53.252Z,99.99
2018-03-22T02:07:53.462Z,99.99
2018-03-22T02:08:53.215Z,99.99
2018-03-22T02:09:53.181Z,99.99
2018-03-22T02:10:53.162Z,99.99
2018-03-22T02:11:53.180Z,99.99
2018-03-22T02:12:53.210Z,99.99
2018-03-22T02:13:52.825Z,99.99
2018-03-22T02:14:53.078Z,99.99
2018-03-22T02:15:53.052Z,99.99
2018-03-22T02:16:52.761Z,99.99
2018-03-22T02:17:52.743Z,99.99
2018-03-22T02:18:52.983Z,99.99
2018-03-22T02:19:52.695Z,99.99
2018-03-22T02:20:52.756Z,99.99
2018-03-22T02:21:52.951Z,99.99
2018-03-22T02:22:53.022Z,99.99
2018-03-22T02:23:52.878Z,99.99
2018-03-22T02:24:52.851Z,99.99
2018-03-22T02:25:52.831Z,99.99
2018-03-22T02:26:52.814Z,99.99
2018-03-22T02:27:52.526Z,99.99
2018-03-22T02:28:52.518Z,99.99
2018-03-22T02:29:52.482Z,99.99
2018-03-22T02:30:52.736Z,99.99
2018-03-22T02:31:52.444Z,99.99
2018-03-22T02:32:52.506Z,99.99
2018-03-22T02:33:52.662Z,99.99
2018-03-22T02:34:52.376Z,99.99
2018-03-22T02:35:52.363Z,99.99
2018-03-22T02:36:52.620Z,99.99
2018-03-22T02:37:52.580Z,99.99
2018-03-22T02:38:52.290Z,99.99
2018-03-22T02:39:52.275Z,99.99
2018-03-22T02:40:52.588Z,99.99
2018-03-22T02:41:52.493Z,99.99
2018-03-22T02:42:52.263Z,99.99
2018-03-22T02:43:52.187Z,99.99
2018-03-22T02:44:52.178Z,99.99
2018-03-22T02:45:52.154Z,99.99
2018-03-22T02:46:52.127Z,99.99
2018-03-22T02:47:52.122Z,99.99
2018-03-22T02:48:52.076Z,99.99
2018-03-22T02:49:52.118Z,99.99
2018-03-22T02:50:52.308Z,99.99
2018-03-22T02:51:52.282Z,99.99
2018-03-22T02:52:52.007Z,99.99
2018-03-22T02:53:52.245Z,99.99
2018-03-22T02:54:52.216Z,99.99
2018-03-22T02:55:52.214Z,99.99
2018-03-22T02:56:52.329Z,99.99
2018-03-22T02:57:51.894Z,99.99
2018-03-22T02:58:52.197Z,99.99
2018-03-22T02:59:52.118Z,99.99
2018-03-22T03:00:52.092Z,99.99
2018-03-22T03:01:52.075Z,99.99
2018-03-22T03:02:51.795Z,99.99
2018-03-22T03:03:51.761Z,99.99
2018-03-22T03:04:52.016Z,99.99
2018-03-22T03:05:52.069Z,99.99
2018-03-22T03:06:51.690Z,99.99
2018-03-22T03:07:51.937Z,99.99
2018-03-22T03:08:51.933Z,99.99
2018-03-22T03:09:51.884Z,99.99
2018-03-22T03:10:51.674Z,99.99
2018-03-22T03:11:51.611Z,99.99
2018-03-22T03:12:51.893Z,99.99
2018-03-22T03:13:51.736Z,99.99
2018-03-22T03:14:51.527Z,99.99
2018-03-22T03:15:51.832Z,99.99
2018-03-22T03:16:51.740Z,99.99
2018-03-22T03:17:51.729Z,99.99
2018-03-22T03:18:51.698Z,99.99
2018-03-22T03:19:51.679Z,99.99
2018-03-22T03:20:51.500Z,99.99
2018-03-22T03:21:51.361Z,99.99
2018-03-22T03:22:51.340Z,99.99
2018-03-22T03:23:51.592Z,99.99
2018-03-22T03:24:51.307Z,99.99
2018-03-22T03:25:51.547Z,99.99
2018-03-22T03:26:51.528Z,99.99
2018-03-22T03:27:51.509Z,99.99
2018-03-22T03:28:51.494Z,99.99
2018-03-22T03:29:51.258Z,99.99
2018-03-22T03:30:51.216Z,99.99
2018-03-22T03:31:51.167Z,99.99
2018-03-22T03:32:51.396Z,99.99
2018-03-22T03:33:51.124Z,99.99
2018-03-22T03:34:51.094Z,99.99
2018-03-22T03:35:51.072Z,99.99
2018-03-22T03:36:51.309Z,99.99
2018-03-22T03:37:51.019Z,99.99
2018-03-22T03:38:51.377Z,99.99
2018-03-22T03:39:51.310Z,99.99
2018-03-22T03:40:51.221Z,99.99
2018-03-22T03:41:50.933Z,99.99
2018-03-22T03:42:51.179Z,99.99
2018-03-22T03:43:50.896Z,99.99
2018-03-22T03:44:51.137Z,99.99
2018-03-22T03:45:51.111Z,99.99
2018-03-22T03:46:51.212Z,99.99
2018-03-22T03:47:51.309Z,99.99
2018-03-22T03:48:50.853Z,99.99
2018-03-22T03:49:51.041Z,99.99
2018-03-22T03:50:50.779Z,99.99
2018-03-22T03:51:51.012Z,99.99
2018-03-22T03:52:50.967Z,99.99
2018-03-22T03:53:50.953Z,99.99
2018-03-22T03:54:50.933Z,99.99
2018-03-22T03:55:51.212Z,99.99
2018-03-22T03:56:50.966Z,99.99
2018-03-22T03:57:50.864Z,99.99
2018-03-22T03:58:50.572Z,99.99
2018-03-22T03:59:50.863Z,99.99
2018-03-22T04:00:51.004Z,99.99
2018-03-22T04:01:50.621Z,99.99
2018-03-22T04:02:50.489Z,99.99
2018-03-22T04:03:50.728Z,99.99
2018-03-22T04:04:50.808Z,99.99
2018-03-22T04:05:50.420Z,99.99
2018-03-22T04:06:50.437Z,99.99
2018-03-22T04:07:50.469Z,99.99
2018-03-22T04:08:50.631Z,99.99
2018-03-22T04:09:50.617Z,99.99
2018-03-22T04:10:50.327Z,99.99
2018-03-22T04:11:50.789Z,99.99
2018-03-22T04:12:50.447Z,99.99
2018-03-22T04:13:50.305Z,99.99
2018-03-22T04:14:50.227Z,99.99
2018-03-22T04:15:50.472Z,99.99
2018-03-22T04:16:50.180Z,99.99
2018-03-22T04:17:50.163Z,99.72
2018-03-22T04:18:50.404Z,99.99
2018-03-22T04:19:50.458Z,99.06
2018-03-22T04:20:50.100Z,98.58
2018-03-22T04:21:50.481Z,99.06
2018-03-22T04:22:50.246Z,98.49
2018-03-22T04:23:50.402Z,98.49
2018-03-22T04:24:50.279Z,98.02
2018-03-22T04:25:50.028Z,97.92
2018-03-22T04:26:50.061Z,97.83
2018-03-22T04:27:50.209Z,97.54
2018-03-22T04:28:50.201Z,97.16
2018-03-22T04:29:49.899Z,96.12
2018-03-22T04:30:49.886Z,96.88
2018-03-22T04:31:49.955Z,95.65
2018-03-22T04:32:50.113Z,95.07
2018-03-22T04:33:49.820Z,95.36
2018-03-22T04:34:50.065Z,94.04
2018-03-22T04:35:49.847Z,94.32
2018-03-22T04:36:49.757Z,92.99
2018-03-22T04:37:49.995Z,92.99
2018-03-22T04:38:49.839Z,93.08
2018-03-22T04:39:49.964Z,92.42
2018-03-22T04:40:49.934Z,91.38
2018-03-22T04:41:49.645Z,91.76
2018-03-22T04:42:49.894Z,89.48
2018-03-22T04:43:49.956Z,88.92
2018-03-22T04:44:49.843Z,87.4
2018-03-22T04:45:49.559Z,86.35
2018-03-22T04:46:50.004Z,85.88
2018-03-22T04:47:49.514Z,83.04
2018-03-22T04:48:49.878Z,80.95
2018-03-22T04:49:49.778Z,79.25
2018-03-22T04:50:49.714Z,78.67
2018-03-22T04:51:49.441Z,77.45
2018-03-22T04:52:49.428Z,75.55
2018-03-22T04:53:49.665Z,73.46
2018-03-22T04:54:49.631Z,72.99
2018-03-22T04:55:49.337Z,72.23
2018-03-22T04:56:49.308Z,71.66
2018-03-22T04:57:49.482Z,70.43
2018-03-22T04:58:49.642Z,69.2
2018-03-22T04:59:49.340Z,67.77
2018-03-22T05:00:49.331Z,66.99
2018-03-22T05:01:49.607Z,66.03
2018-03-22T05:02:49.450Z,65.94
2018-03-22T05:03:49.621Z,64.81
2018-03-22T05:04:49.532Z,63.48
2018-03-22T05:05:49.551Z,62.82
2018-03-22T05:06:49.150Z,61.87
2018-03-22T05:07:49.379Z,61.87
2018-03-22T05:08:49.104Z,61.21
2018-03-22T05:09:49.164Z,61.49
2018-03-22T05:10:49.402Z,60.64
2018-03-22T05:11:49.098Z,60.16
2018-03-22T05:12:49.284Z,60.16
2018-03-22T05:13:49.105Z,59.5
2018-03-22T05:14:49.339Z,59.31
2018-03-22T05:15:49.204Z,59.03
2018-03-22T05:16:49.245Z,58.55
2018-03-22T05:17:49.165Z,58.45
2018-03-22T05:18:49.282Z,58.45
2018-03-22T05:19:49.231Z,58.36
2018-03-22T05:20:49.130Z,57.6
2018-03-22T05:21:49.085Z,57.42
2018-03-22T05:22:49.075Z,57.23
2018-03-22T05:23:48.811Z,57.04
2018-03-22T05:24:48.774Z,57.23
2018-03-22T05:25:48.987Z,56.66
2018-03-22T05:26:49.041Z,56.94
2018-03-22T05:27:48.993Z,55.99
2018-03-22T05:28:48.632Z,56.09
2018-03-22T05:29:49.013Z,56.27
2018-03-22T05:30:48.898Z,55.71
2018-03-22T05:31:49.037Z,56.18
2018-03-22T05:32:48.555Z,55.8
2018-03-22T05:33:48.890Z,55.9
2018-03-22T05:34:48.790Z,55.52
2018-03-22T05:35:48.787Z,55.33
2018-03-22T05:36:48.838Z,55.24
2018-03-22T05:37:48.432Z,54.95
2018-03-22T05:38:48.727Z,55.05
2018-03-22T05:39:48.707Z,54.86
2018-03-22T05:40:48.439Z,54.86
2018-03-22T05:41:48.614Z,55.14
2018-03-22T05:42:48.708Z,54.57
2018-03-22T05:43:48.345Z,55.14
2018-03-22T05:44:48.300Z,55.14
2018-03-22T05:45:48.557Z,54.86
2018-03-22T05:46:48.207Z,54.76
2018-03-22T05:47:48.439Z,54.67
2018-03-22T05:48:48.157Z,54.67
2018-03-22T05:49:48.128Z,54.86
2018-03-22T05:50:48.374Z,54.95
2018-03-22T05:51:48.353Z,54.47
2018-03-22T05:52:48.376Z,54.67
2018-03-22T05:53:48.038Z,54.28
2018-03-22T05:54:48.019Z,54.47
2018-03-22T05:55:48.668Z,54.19
2018-03-22T05:56:48.237Z,54.1
2018-03-22T05:57:47.954Z,54
2018-03-22T05:58:48.192Z,54
2018-03-22T05:59:47.905Z,54.1
2018-03-22T06:00:48.147Z,53.44
2018-03-22T06:01:47.865Z,53.72
2018-03-22T06:02:48.104Z,53.91
2018-03-22T06:03:48.078Z,53.81
2018-03-22T06:04:48.059Z,53.34
2018-03-22T06:05:48.036Z,53.53
2018-03-22T06:06:48.012Z,53.34
2018-03-22T06:07:47.994Z,53.63
2018-03-22T06:08:48.074Z,53.34
2018-03-22T06:09:47.680Z,53.34
2018-03-22T06:10:47.921Z,53.34
2018-03-22T06:11:47.637Z,53.25
2018-03-22T06:12:47.612Z,53.63
2018-03-22T06:13:47.591Z,53.72
2018-03-22T06:14:47.830Z,53.72
2018-03-22T06:15:47.821Z,53.15
2018-03-22T06:16:47.525Z,53.15
2018-03-22T06:17:47.498Z,53.25
2018-03-22T06:18:47.755Z,52.87
2018-03-22T06:19:47.717Z,52.96
2018-03-22T06:20:47.438Z,52.87
2018-03-22T06:21:47.413Z,52.68
2018-03-22T06:22:47.390Z,52.96
2018-03-22T06:23:47.365Z,53.06
2018-03-22T06:24:47.609Z,52.96
2018-03-22T06:25:47.612Z,53.06
2018-03-22T06:26:47.296Z,53.06
2018-03-22T06:27:47.544Z,53.06
2018-03-22T06:28:47.258Z,52.68
2018-03-22T06:29:47.494Z,52.68
2018-03-22T06:30:47.475Z,52.77
2018-03-22T06:31:47.182Z,52.29
2018-03-22T06:32:47.517Z,52.39
2018-03-22T06:33:47.402Z,52.68
2018-03-22T06:34:47.383Z,52.39
2018-03-22T06:35:47.098Z,52.01
2018-03-22T06:36:47.335Z,52.11
2018-03-22T06:37:47.047Z,52.39
2018-03-22T06:38:47.027Z,52.29
2018-03-22T06:39:47.264Z,52.2
2018-03-22T06:40:47.248Z,52.2
2018-03-22T06:41:47.228Z,52.2
2018-03-22T06:42:47.202Z,52.39
2018-03-22T06:43:46.913Z,52.58
2018-03-22T06:44:47.163Z,52.39
2018-03-22T06:45:46.867Z,52.39
2018-03-22T06:46:47.114Z,52.01
2018-03-22T06:47:47.087Z,51.92
2018-03-22T06:48:46.802Z,51.73
2018-03-22T06:49:46.780Z,51.92
2018-03-22T06:50:47.025Z,52.01
2018-03-22T06:51:46.735Z,52.11
2018-03-22T06:52:46.974Z,52.11
2018-03-22T06:53:46.958Z,52.11
2018-03-22T06:54:46.928Z,52.01
2018-03-22T06:55:46.912Z,51.92
2018-03-22T06:56:46.627Z,52.2
2018-03-22T06:57:46.597Z,52.29
2018-03-22T06:58:46.576Z,51.92
2018-03-22T06:59:46.817Z,52.01
2018-03-22T07:00:46.536Z,52.01
2018-03-22T07:01:46.523Z,51.92
2018-03-22T07:02:46.757Z,51.92
2018-03-22T07:03:46.471Z,51.92
2018-03-22T07:04:46.710Z,51.82
2018-03-22T07:05:46.424Z,51.73
2018-03-22T07:06:46.400Z,51.64
2018-03-22T07:07:46.378Z,51.82
2018-03-22T07:08:46.617Z,51.73
2018-03-22T07:09:46.329Z,51.45
2018-03-22T07:10:46.580Z,51.82
2018-03-22T07:11:46.548Z,51.73
2018-03-22T07:12:46.539Z,51.73
2018-03-22T07:13:46.247Z,51.73
2018-03-22T07:14:46.215Z,51.54
2018-03-22T07:15:46.473Z,51.64
2018-03-22T07:16:46.436Z,51.45
2018-03-22T07:17:46.421Z,51.35
2018-03-22T07:18:46.395Z,51.64
2018-03-22T07:19:46.380Z,51.45
2018-03-22T07:20:46.347Z,51.54
2018-03-22T07:21:46.336Z,51.92
2018-03-22T07:22:46.041Z,51.35
2018-03-22T07:23:46.017Z,51.82
2018-03-22T07:24:46.257Z,51.92
2018-03-22T07:25:46.234Z,51.73
2018-03-22T07:26:46.224Z,51.26
2018-03-22T07:27:45.928Z,51.54
2018-03-22T07:28:46.167Z,51.92
2018-03-22T07:29:46.148Z,51.35
2018-03-22T07:30:46.126Z,51.35
2018-03-22T07:31:46.103Z,51.82
2018-03-22T07:32:46.076Z,51.45
2018-03-22T07:33:45.792Z,51.73
2018-03-22T07:34:45.769Z,51.26
2018-03-22T07:35:45.748Z,51.45
2018-03-22T07:36:45.776Z,51.35
2018-03-22T07:37:45.971Z,51.35
2018-03-22T07:38:45.677Z,51.26
2018-03-22T07:39:45.664Z,51.16
2018-03-22T07:40:45.695Z,51.35
2018-03-22T07:41:45.632Z,51.26
2018-03-22T07:42:45.861Z,51.26
2018-03-22T07:43:45.588Z,51.82
2018-03-22T07:44:45.808Z,51.82
2018-03-22T07:45:45.785Z,51.73
2018-03-22T07:46:45.498Z,51.54
2018-03-22T07:47:45.477Z,51.54
2018-03-22T07:48:45.721Z,51.82
2018-03-22T07:49:45.428Z,51.73
2018-03-22T07:50:45.409Z,51.64
2018-03-22T07:51:45.387Z,51.64
2018-03-22T07:52:45.687Z,51.73
2018-03-22T07:53:45.612Z,51.73
2018-03-22T07:54:45.589Z,51.73
2018-03-22T07:55:45.300Z,51.35
2018-03-22T07:56:45.271Z,51.64
2018-03-22T07:57:45.519Z,51.26
2018-03-22T07:58:45.490Z,51.35
2018-03-22T07:59:45.480Z,51.64
2018-03-22T08:00:45.467Z,51.54
2018-03-22T08:01:45.438Z,51.64
2018-03-22T08:02:45.410Z,51.54
2018-03-22T08:03:45.382Z,51.64
2018-03-22T08:04:45.093Z,51.64
2018-03-22T08:05:45.393Z,51.45
2018-03-22T08:06:45.046Z,51.54
2018-03-22T08:07:45.292Z,51.64
2018-03-22T08:08:45.270Z,51.54
2018-03-22T08:09:44.979Z,51.54
2018-03-22T08:10:45.230Z,51.35
2018-03-22T08:11:44.933Z,51.35
2018-03-22T08:12:44.913Z,51.35
2018-03-22T08:13:44.897Z,51.54
2018-03-22T08:14:44.864Z,51.45
2018-03-22T08:15:44.842Z,51.64
2018-03-22T08:16:45.088Z,51.16
2018-03-22T08:17:45.072Z,50.97
2018-03-22T08:18:45.044Z,51.16
2018-03-22T08:19:44.754Z,51.35
2018-03-22T08:20:45.005Z,51.64
2018-03-22T08:21:44.973Z,51.35
2018-03-22T08:22:44.957Z,51.54
2018-03-22T08:23:44.944Z,51.35
2018-03-22T08:24:44.647Z,51.45
2018-03-22T08:25:44.895Z,50.97
2018-03-22T08:26:44.603Z,51.26
2018-03-22T08:27:44.842Z,51.54
2018-03-22T08:28:44.873Z,51.16
2018-03-22T08:29:44.802Z,51.45
2018-03-22T08:30:44.512Z,51.35
2018-03-22T08:31:44.755Z,51.64
2018-03-22T08:32:44.465Z,50.97
2018-03-22T08:33:44.711Z,51.54
2018-03-22T08:34:44.682Z,51.45
2018-03-22T08:35:44.402Z,51.16
2018-03-22T08:36:44.376Z,51.26
2018-03-22T08:37:44.620Z,50.97
2018-03-22T08:38:44.601Z,51.16
2018-03-22T08:39:44.581Z,51.35
2018-03-22T08:40:44.546Z,51.35
2018-03-22T08:41:44.539Z,51.35
2018-03-22T08:42:44.239Z,51.16
2018-03-22T08:43:44.214Z,51.16
2018-03-22T08:44:44.470Z,51.16
2018-03-22T08:45:44.172Z,51.07
2018-03-22T08:46:44.414Z,51.07
2018-03-22T08:47:44.401Z,51.16
2018-03-22T08:48:44.375Z,50.88
2018-03-22T08:49:44.354Z,51.16
2018-03-22T08:50:44.327Z,50.97
2018-03-22T08:51:44.040Z,51.07
2018-03-22T08:52:44.282Z,50.88
2018-03-22T08:53:44.264Z,50.69
2018-03-22T08:54:44.288Z,50.49
2018-03-22T08:55:43.950Z,50.49
2018-03-22T08:56:43.927Z,50.69
2018-03-22T08:57:43.905Z,50.97
2018-03-22T08:58:43.884Z,50.88
2018-03-22T08:59:43.924Z,50.69
2018-03-22T09:00:43.858Z,50.52
2018-03-22T09:01:44.022Z,50.49
2018-03-22T09:02:44.057Z,50.43
2018-03-22T09:03:43.774Z,50.62
2018-03-22T09:04:43.749Z,50.69
2018-03-22T09:05:43.992Z,50.49
2018-03-22T09:06:43.704Z,50.71
2018-03-22T09:07:43.684Z,50.52
2018-03-22T09:08:43.665Z,50.99
2018-03-22T09:09:43.647Z,50.81
2018-03-22T09:10:43.893Z,50.52
2018-03-22T09:11:43.861Z,50.52
2018-03-22T09:12:43.572Z,50.52
2018-03-22T09:13:43.819Z,50.52
2018-03-22T09:14:43.531Z,50.52
2018-03-22T09:15:43.772Z,50.62
2018-03-22T09:16:43.487Z,50.62
2018-03-22T09:17:43.731Z,50.62
2018-03-22T09:18:43.706Z,50.52
2018-03-22T09:19:43.682Z,50.15
2018-03-22T09:20:43.393Z,50.05
2018-03-22T09:21:43.642Z,50.15
2018-03-22T09:22:43.630Z,49.95
2018-03-22T09:23:43.610Z,50.05
2018-03-22T09:24:43.578Z,50.05
2018-03-22T09:25:43.553Z,50.15
2018-03-22T09:26:43.534Z,50.24
2018-03-22T09:27:43.506Z,50.05
2018-03-22T09:28:43.493Z,49.57
2018-03-22T09:29:43.208Z,49.95
2018-03-22T09:30:43.443Z,49.67
2018-03-22T09:31:43.417Z,49.86
2018-03-22T09:32:43.140Z,49.67
2018-03-22T09:33:43.111Z,49.67
2018-03-22T09:34:43.090Z,49.57
2018-03-22T09:35:43.335Z,49.76
2018-03-22T09:36:43.046Z,49.48
2018-03-22T09:37:43.293Z,49.67
2018-03-22T09:38:43.270Z,49.67
2018-03-22T09:39:43.251Z,49.48
2018-03-22T09:40:43.226Z,49.48
2018-03-22T09:41:42.944Z,49.48
2018-03-22T09:42:43.219Z,49.76
2018-03-22T09:43:43.202Z,49.38
2018-03-22T09:44:43.139Z,49.29
2018-03-22T09:45:42.859Z,49.57
2018-03-22T09:46:42.827Z,49.57
2018-03-22T09:47:42.806Z,49.57
2018-03-22T09:48:42.788Z,49.38
2018-03-22T09:49:42.766Z,49.29
2018-03-22T09:50:43.005Z,49.22
2018-03-22T09:51:43.000Z,49.29
2018-03-22T09:52:42.968Z,49.41
2018-03-22T09:53:42.972Z,49.29
2018-03-22T09:54:42.654Z,49.22
2018-03-22T09:55:42.634Z,49.22
2018-03-22T09:56:43.090Z,49.13
2018-03-22T09:57:42.591Z,48.94
2018-03-22T09:58:42.841Z,49.22
2018-03-22T09:59:42.814Z,49.03
2018-03-22T10:00:42.790Z,49.13
2018-03-22T10:01:42.780Z,48.94
2018-03-22T10:02:42.803Z,49.03
2018-03-22T10:03:42.740Z,49.32
2018-03-22T10:04:42.704Z,49.13
2018-03-22T10:05:42.419Z,49.32
2018-03-22T10:06:42.794Z,49.32
2018-03-22T10:07:42.696Z,49.22
2018-03-22T10:08:42.627Z,48.94
2018-03-22T10:09:42.404Z,49.03
2018-03-22T10:10:42.377Z,49.13
2018-03-22T10:11:42.291Z,49.13
2018-03-22T10:12:42.363Z,48.94
2018-03-22T10:13:42.254Z,49.03
2018-03-22T10:14:42.569Z,49.03
2018-03-22T10:15:42.474Z,48.75
2018-03-22T10:16:42.181Z,48.56
2018-03-22T10:17:42.427Z,48.65
2018-03-22T10:18:42.448Z,48.75
2018-03-22T10:19:42.386Z,48.75
2018-03-22T10:20:42.097Z,48.36
2018-03-22T10:21:42.127Z,48.18
2018-03-22T10:22:42.056Z,48.65
2018-03-22T10:23:42.301Z,48.46
2018-03-22T10:24:42.276Z,48.65
2018-03-22T10:25:41.997Z,48.75
2018-03-22T10:26:42.244Z,48.65
2018-03-22T10:27:42.309Z,48.65
2018-03-22T10:28:42.050Z,48.75
2018-03-22T10:29:42.194Z,48.36
2018-03-22T10:30:42.188Z,48.46
2018-03-22T10:31:42.131Z,48.27
2018-03-22T10:32:42.115Z,48.56
2018-03-22T10:33:41.860Z,48.56
2018-03-22T10:34:42.130Z,48.36
2018-03-22T10:35:42.087Z,48.46
2018-03-22T10:36:42.046Z,48.46
2018-03-22T10:37:42.045Z,48.36
2018-03-22T10:38:41.728Z,48.18
2018-03-22T10:39:41.961Z,47.89
2018-03-22T10:40:41.938Z,48.27
2018-03-22T10:41:41.918Z,48.18
2018-03-22T10:42:41.898Z,47.99
2018-03-22T10:43:41.875Z,48.36
2018-03-22T10:44:41.925Z,48.18
2018-03-22T10:45:41.572Z,48.08
2018-03-22T10:46:41.553Z,48.08
2018-03-22T10:47:41.838Z,48.08
2018-03-22T10:48:41.772Z,47.99
2018-03-22T10:49:41.751Z,48.18
2018-03-22T10:50:41.753Z,47.92
2018-03-22T10:51:41.446Z,48.01
2018-03-22T10:52:41.517Z,48.08
2018-03-22T10:53:41.406Z,48.01
2018-03-22T10:54:41.650Z,47.92
2018-03-22T10:55:41.634Z,47.92
2018-03-22T10:56:41.604Z,47.92
2018-03-22T10:57:41.588Z,47.92
2018-03-22T10:58:41.299Z,48.11
2018-03-22T10:59:41.279Z,47.82
2018-03-22T11:00:41.264Z,47.92
2018-03-22T11:01:41.504Z,47.82
2018-03-22T11:02:41.219Z,47.82
2018-03-22T11:03:41.198Z,47.92
2018-03-22T11:04:41.439Z,47.92
2018-03-22T11:05:41.427Z,47.92
2018-03-22T11:06:41.136Z,47.92
2018-03-22T11:07:41.116Z,47.82
2018-03-22T11:08:41.363Z,48.2
2018-03-22T11:09:41.071Z,48.2
2018-03-22T11:10:41.323Z,47.34
2018-03-22T11:11:41.036Z,47.53
2018-03-22T11:12:41.274Z,47.53
2018-03-22T11:13:40.994Z,47.63
2018-03-22T11:14:40.974Z,47.63
2018-03-22T11:15:41.220Z,47.73
2018-03-22T11:16:41.195Z,47.82
2018-03-22T11:17:41.180Z,47.73
2018-03-22T11:18:40.893Z,47.92
2018-03-22T11:19:41.141Z,47.53
2018-03-22T11:20:41.122Z,47.25
2018-03-22T11:21:41.098Z,47.16
2018-03-22T11:22:40.812Z,47.16
2018-03-22T11:23:40.797Z,46.97
2018-03-22T11:24:40.771Z,46.97
2018-03-22T11:25:40.753Z,46.88
2018-03-22T11:26:40.742Z,47.16
2018-03-22T11:27:40.977Z,47.06
2018-03-22T11:28:40.698Z,46.88
2018-03-22T11:29:40.945Z,46.88
2018-03-22T11:30:40.918Z,47.37
2018-03-22T11:31:40.631Z,47.56
2018-03-22T11:32:40.614Z,46.8
2018-03-22T11:33:40.588Z,46.8
2018-03-22T11:34:40.840Z,46.61
2018-03-22T11:35:40.928Z,47.18
2018-03-22T11:36:40.859Z,47.18
2018-03-22T11:37:40.819Z,47.28
2018-03-22T11:38:40.802Z,47.18
2018-03-22T11:39:40.480Z,47.18
2018-03-22T11:40:40.451Z,46.9
2018-03-22T11:41:40.732Z,46.7
2018-03-22T11:42:40.811Z,46.61
2018-03-22T11:43:40.545Z,46.99
2018-03-22T11:44:40.373Z,46.61
2018-03-22T11:45:40.623Z,46.42
2018-03-22T11:46:40.340Z,46.33
2018-03-22T11:47:40.652Z,46.04
2018-03-22T11:48:40.594Z,46.25
2018-03-22T11:49:40.334Z,45.97
2018-03-22T11:50:40.263Z,45.68
2018-03-22T11:51:40.282Z,45.68
2018-03-22T11:52:40.490Z,45.59
2018-03-22T11:53:40.567Z,45.31
2018-03-22T11:54:40.446Z,45.31
2018-03-22T11:55:40.169Z,45.5
2018-03-22T11:56:40.611Z,45.02
2018-03-22T11:57:40.121Z,45.02
2018-03-22T11:58:40.110Z,44.83
2018-03-22T11:59:40.099Z,45.02
2018-03-22T12:00:40.072Z,44.93
2018-03-22T12:01:40.057Z,44.83
2018-03-22T12:02:40.345Z,44.83
2018-03-22T12:03:40.030Z,44.83
2018-03-22T12:04:40.281Z,44.64
2018-03-22T12:05:39.979Z,44.54
2018-03-22T12:06:39.961Z,44.73
2018-03-22T12:07:40.217Z,44.54
2018-03-22T12:08:40.189Z,44.54
2018-03-22T12:09:39.912Z,44.64
2018-03-22T12:10:40.156Z,44.45
2018-03-22T12:11:39.865Z,44.35
2018-03-22T12:12:39.848Z,44.35
2018-03-22T12:13:39.840Z,44.45
2018-03-22T12:14:39.823Z,44.35
2018-03-22T12:15:39.804Z,44.35
2018-03-22T12:16:40.046Z,44.17
2018-03-22T12:17:39.755Z,44.17
2018-03-22T12:18:39.745Z,44.17
2018-03-22T12:19:39.997Z,44.35
2018-03-22T12:20:39.970Z,44.26
2018-03-22T12:21:40.002Z,44.35
2018-03-22T12:22:39.937Z,44.35
2018-03-22T12:23:39.653Z,44.26
2018-03-22T12:24:39.634Z,44.35
2018-03-22T12:25:39.901Z,44.26
2018-03-22T12:26:39.859Z,44.45
2018-03-22T12:27:39.880Z,44.26
2018-03-22T12:28:39.818Z,44.45
2018-03-22T12:29:39.864Z,44.54
2018-03-22T12:30:39.515Z,44.45
2018-03-22T12:31:39.513Z,44.54
2018-03-22T12:32:39.748Z,44.54
2018-03-22T12:33:39.726Z,44.35
2018-03-22T12:34:39.724Z,44.26
2018-03-22T12:35:39.427Z,44.45
2018-03-22T12:36:39.717Z,44.45
2018-03-22T12:37:39.834Z,44.35
2018-03-22T12:38:39.400Z,44.35
2018-03-22T12:39:39.612Z,44.64
2018-03-22T12:40:39.326Z,44.45
2018-03-22T12:41:39.588Z,44.35
2018-03-22T12:42:39.575Z,44.17
2018-03-22T12:43:39.769Z,44.35
2018-03-22T12:44:39.249Z,44.35
2018-03-22T12:45:39.500Z,44.54
2018-03-22T12:46:39.563Z,44.45
2018-03-22T12:47:39.194Z,44.54
2018-03-22T12:48:39.446Z,44.26
2018-03-22T12:49:39.425Z,44.17
2018-03-22T12:50:39.138Z,44.45
2018-03-22T12:51:39.414Z,44.26
2018-03-22T12:52:39.377Z,44.45
2018-03-22T12:53:39.084Z,44.54